Meteo Giornale » Osservazioni meteo Gran Bretagna » Leuchars

ore: 18:50 - Osservazioni Meteo Leuchars
Lat. 56° 23' N Lon. 2° 52' W Alt. 12 metri s.l.m.

nuvoloso

17 °C

Nuvoloso

Temp. 24 Ore

14 °C

22 °C

Ovest

29.6 Km/h

Dew point 10 °C

Umidità 63 %

Visibilità  10 Km

Il sole sorge alle ore 06:13

Il sole tramonta alle ore 20:10

Data e Ora Cielo e Fenomeni T °C DP °C Um. % Pres. hPa Vis. km Vento km/h
Oggi h: 18:50 nuvoloso Nuvoloso 17 10 63 1010 10 O 29.6
Oggi h: 17:50 poco_nuvoloso Poco Nuvoloso 19 11 59 1009 10 O 27.8
Oggi h: 16:50 molto_nuvoloso Molto Nuvoloso 20 10 52 1008 10 O 29.6
Oggi h: 15:50 nuvoloso Nuvoloso 22 13 56 1007 10 O 29.6
Oggi h: 14:50 molto_nuvoloso Molto Nuvoloso 20 12 59 1007 10 O/NO 16.7
Oggi h: 13:50 sereno Sereno 20 12 59 1007 10 O 27.8
Oggi h: 12:50 molto_nuvoloso Molto Nuvoloso 20 12 59 1006 10 O 22.2
Oggi h: 11:50 poco_nuvoloso Poco Nuvoloso 20 14 68 1006 10 O 22.2
Oggi h: 10:50 sereno Sereno 17 13 77 1005 10 O/NO 18.5
Oggi h: 09:50 sereno Sereno 17 14 82 1005 10 O 16.7
Oggi h: 08:50 sereno Sereno 16 14 87 1004 10 O 14.8
Oggi h: 07:50 sereno Sereno 15 14 93 1004 10 O/SO 16.7
Oggi h: 06:50 sereno Sereno 14 14 100 1003 10 O 13
Oggi h: 05:50 coperto Coperto 14 14 100 1002 10 O 9.3
Oggi h: 05:20 foschia Foschia 14 14 100 1002 9 O 7.4
Oggi h: 04:50 molto_nuvoloso Molto Nuvoloso 14 14 100 1002 10 O 7.4
Oggi h: 03:50 foschia Foschia 14 14 100 1002 8 O 7.4
Oggi h: 02:50 coperto Coperto 14 14 100 1002 10 N 5.5
Oggi h: 01:50 foschia Foschia 15 15 100 1002 7 N 5.5
Oggi h: 00:50 foschia Foschia 15 15 100 1002 5 N 5.5
Ieri h: 23:50 foschia Foschia 15 15 100 1002 4 N/NO 7.4
Ieri h: 22:50 foschia Foschia 15 15 100 1002 9 N 5.5
Ieri h: 21:50 coperto Coperto 15 15 100 1002 10 E/NE 7.4
Ieri h: 20:50 nuvoloso_piovaschi Pioggia 15 15 100 1003 7 NE 7.4
Ieri h: 19:50 coperto_pioggia Pioggia 16 15 93 1003 7 E 7.4